KMDT

Harrisburg International Airport

Harrisburg, Pennsylvania, USA
KMDT 221555Z 2216/2312 31005KT P6SM SCT250 FM230500 13003KT P6SM OVC100 FM231100 14003KT P6SM OVC070 WS020/22035KT
Issued Valid From Valid To
Jan-22 @ 15:55 UTC
(2 hours ago)
Jan-22 @ 16:00 UTC
(2 hours ago)
Jan-23 @ 12:00 UTC
(in 18 hours)
Jan-22 @ 16:00 to Jan-23 @ 05:00
KMDT 221555Z 2216/2312 31005KT P6SM SCT250
Wind Visibility Clouds
310° at 5 knots Greater than 6 miles
  • Scattered at 25,000' AGL
From Jan-23 @ 05:00 to Jan-23 @ 11:00
FM230500 13003KT P6SM OVC100
Wind Visibility Clouds
130° at 3 knots Greater than 6 miles
  • Overcast at 10,000' AGL
From Jan-23 @ 11:00 to Jan-23 @ 12:00
FM231100 14003KT P6SM OVC070 WS020/22035KT
Wind Visibility Clouds
140° at 3 knots
 Wind shear 2,000' AGL from 220° at 35 knots
Greater than 6 miles
  • Overcast at 7,000' AGL
KMDT 221555Z 2216/2312 31005KT P6SM SCT250 FM230500 13003KT P6SM OVC100 FM231100 14003KT P6SM OVC070 WS020/22035KT
Issued Jan-22 @ 15:55 UTC
(2 hours ago)
Valid From Jan-22 @ 16:00 UTC
(2 hours ago)
Valid To Jan-23 @ 12:00 UTC
(in 18 hours)
Jan-22 @ 16:00 - Jan-23 @ 05:00
Wind Visibility
310° at 5 knots Greater than 6 miles
Clouds
  • Scattered at 25,000' AGL
From Jan-23 @ 05:00 - Jan-23 @ 11:00
Wind Visibility
130° at 3 knots Greater than 6 miles
Clouds
  • Overcast at 10,000' AGL
From Jan-23 @ 11:00 - Jan-23 @ 12:00
Wind Visibility
140° at 3 knots Greater than 6 miles
Clouds
  • Overcast at 7,000' AGL